createdAt,value
2022-12-08T00:01:06.782Z,99348.84
2022-12-08T00:03:34.175Z,99351.91
2022-12-08T00:06:20.957Z,99353.84
2022-12-08T00:09:06.307Z,99349.28
2022-12-08T00:11:32.702Z,99346.41
2022-12-08T00:14:00.037Z,99337.88
2022-12-08T00:16:26.465Z,99344.66
2022-12-08T00:18:52.847Z,99340.50
2022-12-08T00:21:19.206Z,99340.03
2022-12-08T00:23:45.576Z,99346.16
2022-12-08T00:26:11.995Z,99334.78
2022-12-08T00:28:38.339Z,99337.88
2022-12-08T00:31:09.446Z,99338.38
2022-12-08T00:33:35.941Z,99338.63
2022-12-08T00:36:10.614Z,99341.94
2022-12-08T00:38:37.595Z,99343.00
2022-12-08T00:41:08.788Z,99330.88
2022-12-08T00:43:35.142Z,99338.38
2022-12-08T00:46:01.613Z,99334.78
2022-12-08T00:48:28.147Z,99341.88
2022-12-08T00:50:54.517Z,99328.91
2022-12-08T00:53:20.903Z,99325.41
2022-12-08T00:55:47.496Z,99329.59
2022-12-08T00:58:13.908Z,99328.75
2022-12-08T01:00:43.895Z,99337.13
2022-12-08T01:03:11.650Z,99328.41
2022-12-08T01:05:38.434Z,99328.66
2022-12-08T01:08:09.088Z,99334.38
2022-12-08T01:10:36.633Z,99335.22
2022-12-08T01:13:03.745Z,99334.63
2022-12-08T01:15:30.137Z,99333.78
2022-12-08T01:17:56.501Z,99331.31
2022-12-08T01:20:22.853Z,99326.31
2022-12-08T01:22:49.190Z,99334.38
2022-12-08T01:25:15.592Z,99326.06
2022-12-08T01:27:41.934Z,99319.41
2022-12-08T01:30:09.098Z,99331.31
2022-12-08T01:32:35.438Z,99311.81
2022-12-08T01:35:01.828Z,99322.22
2022-12-08T01:37:29.579Z,99317.19
2022-12-08T01:39:55.937Z,99314.13
2022-12-08T01:42:23.239Z,99312.25
2022-12-08T01:44:54.195Z,99309.53
2022-12-08T01:47:22.212Z,99303.81
2022-12-08T01:49:48.683Z,99304.28
2022-12-08T01:52:22.187Z,99309.63
2022-12-08T01:54:57.837Z,99308.09
2022-12-08T01:57:50.308Z,99317.50
2022-12-08T02:00:19.901Z,99307.75
2022-12-08T02:02:48.983Z,99299.53
2022-12-08T02:05:16.440Z,99303.59
2022-12-08T02:07:43.956Z,99290.31
2022-12-08T02:10:14.679Z,99294.66
2022-12-08T02:12:41.067Z,99285.16
2022-12-08T02:15:07.945Z,99290.66
2022-12-08T02:17:51.720Z,99283.63
2022-12-08T02:20:37.882Z,99284.22
2022-12-08T02:23:27.303Z,99275.44
2022-12-08T02:26:08.604Z,99275.19
2022-12-08T02:29:09.061Z,99272.56
2022-12-08T02:32:03.248Z,99274.47
2022-12-08T02:34:35.513Z,99271.59
2022-12-08T02:37:35.652Z,99280.16
2022-12-08T02:40:07.450Z,99277.31
2022-12-08T02:42:44.125Z,99276.06
2022-12-08T02:45:24.981Z,99266.22
2022-12-08T02:47:52.325Z,99274.94
2022-12-08T02:50:19.333Z,99270.38
2022-12-08T02:52:47.601Z,99264.47
2022-12-08T02:55:26.292Z,99265.72
2022-12-08T02:58:23.723Z,99258.19
2022-12-08T03:01:08.520Z,99249.63
2022-12-08T03:03:50.979Z,99248.66
2022-12-08T03:06:32.421Z,99249.84
2022-12-08T03:09:20.837Z,99251.03
2022-12-08T03:12:18.957Z,99258.97
2022-12-08T03:14:53.073Z,99251.69
2022-12-08T03:17:22.971Z,99254.09
2022-12-08T03:19:49.697Z,99250.03
2022-12-08T03:22:21.941Z,99246.13
2022-12-08T03:24:49.236Z,99253.84
2022-12-08T03:27:20.027Z,99247.78
2022-12-08T03:29:52.103Z,99242.53
2022-12-08T03:32:40.102Z,99243.16
2022-12-08T03:35:13.933Z,99241.25
2022-12-08T03:37:40.911Z,99239.72
2022-12-08T03:40:10.616Z,99233.84
2022-12-08T03:42:36.973Z,99228.16
2022-12-08T03:45:04.609Z,99225.44
2022-12-08T03:47:31.018Z,99220.50
2022-12-08T03:49:57.361Z,99217.44
2022-12-08T03:52:23.721Z,99225.75
2022-12-08T03:54:50.113Z,99226.31
2022-12-08T03:57:16.456Z,99218.34
2022-12-08T03:59:42.856Z,99215.31
2022-12-08T04:02:09.279Z,99216.34
2022-12-08T04:04:35.650Z,99216.91
2022-12-08T04:07:02.004Z,99211.22
2022-12-08T04:09:28.343Z,99207.41
2022-12-08T04:11:54.714Z,99206.16
2022-12-08T04:14:21.084Z,99207.59
2022-12-08T04:16:47.435Z,99208.13
2022-12-08T04:19:13.792Z,99209.44
2022-12-08T04:21:40.144Z,99207.59
2022-12-08T04:24:06.905Z,99208.13
2022-12-08T04:26:33.300Z,99201.44
2022-12-08T04:28:59.646Z,99191.41
2022-12-08T04:31:26.059Z,99201.91
2022-12-08T04:33:52.641Z,99196.25
2022-12-08T04:36:19.047Z,99194.56
2022-12-08T04:38:45.372Z,99194.56
2022-12-08T04:41:11.856Z,99195.44
2022-12-08T04:43:38.191Z,99187.97
2022-12-08T04:46:08.348Z,99191.22
2022-12-08T04:48:36.679Z,99190.97
2022-12-08T04:51:03.028Z,99181.47
2022-12-08T04:53:29.364Z,99185.72
2022-12-08T04:55:55.737Z,99182.84
2022-12-08T04:58:22.164Z,99183.56
2022-12-08T05:00:48.958Z,99178.13
2022-12-08T05:03:16.508Z,99179.53
2022-12-08T05:05:43.879Z,99190.97
2022-12-08T05:08:10.871Z,99184.59
2022-12-08T05:10:37.664Z,99177.66
2022-12-08T05:13:04.076Z,99187.41
2022-12-08T05:15:30.508Z,99184.59
2022-12-08T05:17:56.880Z,99179.63
2022-12-08T05:20:23.335Z,99172.16
2022-12-08T05:22:49.981Z,99176.28
2022-12-08T05:25:16.346Z,99171.59
2022-12-08T05:27:43.127Z,99167.59
2022-12-08T05:30:09.634Z,99159.16
2022-12-08T05:32:36.008Z,99166.94
2022-12-08T05:35:02.360Z,99171.31
2022-12-08T05:37:28.753Z,99172.16
2022-12-08T05:39:55.147Z,99169.50
2022-12-08T05:42:24.742Z,99161.06
2022-12-08T05:44:52.004Z,99160.94
2022-12-08T05:47:18.372Z,99159.75
2022-12-08T05:49:44.951Z,99159.03
2022-12-08T05:52:11.299Z,99155.84
2022-12-08T05:54:38.113Z,99159.16
2022-12-08T05:57:04.585Z,99161.94
2022-12-08T05:59:30.991Z,99168.31
2022-12-08T06:01:57.393Z,99165.81
2022-12-08T06:04:23.784Z,99159.47
2022-12-08T06:06:50.148Z,99159.94
2022-12-08T06:09:16.549Z,99167.44
2022-12-08T06:11:43.000Z,99169.66
2022-12-08T06:14:12.544Z,99169.38
2022-12-08T06:16:39.127Z,99164.41
2022-12-08T06:19:05.525Z,99167.84
2022-12-08T06:21:31.887Z,99170.31
2022-12-08T06:23:58.275Z,99171.56
2022-12-08T06:26:24.811Z,99181.78
2022-12-08T06:28:51.964Z,99175.19
2022-12-08T06:31:26.453Z,99179.88
2022-12-08T06:33:54.123Z,99179.88
2022-12-08T06:36:23.404Z,99177.16
2022-12-08T06:38:50.217Z,99183.31
2022-12-08T06:41:17.188Z,99185.97
2022-12-08T06:43:44.245Z,99182.84
2022-12-08T06:46:14.624Z,99184.44
2022-12-08T06:48:41.456Z,99184.44
2022-12-08T06:51:16.168Z,99187.31
2022-12-08T06:53:43.475Z,99185.22
2022-12-08T06:56:11.243Z,99179.97
2022-12-08T06:58:37.686Z,99188.59
2022-12-08T07:01:12.482Z,99186.09
2022-12-08T07:03:39.796Z,99186.88
2022-12-08T07:06:06.847Z,99192.28
2022-12-08T07:08:34.093Z,99192.81
2022-12-08T07:11:06.657Z,99185.91
2022-12-08T07:13:33.011Z,99193.63
2022-12-08T07:15:59.357Z,99197.94
2022-12-08T07:18:25.723Z,99190.19
2022-12-08T07:20:52.074Z,99190.19
2022-12-08T07:23:18.421Z,99183.31
2022-12-08T07:25:44.789Z,99185.47
2022-12-08T07:28:11.557Z,99188.41
2022-12-08T07:30:38.990Z,99181.81
2022-12-08T07:33:06.336Z,99179.28
2022-12-08T07:35:34.835Z,99192.38
2022-12-08T07:38:01.610Z,99178.56
2022-12-08T07:40:28.268Z,99182.47
2022-12-08T07:42:54.740Z,99177.88
2022-12-08T07:45:21.089Z,99178.13
2022-12-08T07:47:47.435Z,99179.34
2022-12-08T07:50:13.845Z,99184.66
2022-12-08T07:52:40.183Z,99174.31
2022-12-08T07:55:07.018Z,99185.41
2022-12-08T07:57:33.368Z,99181.00
2022-12-08T07:59:59.718Z,99184.34
2022-12-08T08:02:26.586Z,99181.47
2022-12-08T08:04:53.615Z,99184.06
2022-12-08T08:07:20.142Z,99189.31
2022-12-08T08:09:46.567Z,99185.72
2022-12-08T08:15:00.400Z,99198.47
2022-12-08T08:17:26.993Z,99200.63
2022-12-08T08:19:53.418Z,99198.47
2022-12-08T08:22:19.804Z,99201.00
2022-12-08T08:24:46.202Z,99189.66
2022-12-08T08:27:13.926Z,99194.66
2022-12-08T08:29:43.327Z,99189.41
2022-12-08T08:32:09.760Z,99195.81
2022-12-08T08:34:36.225Z,99189.16
2022-12-08T08:37:02.703Z,99192.22
2022-12-08T08:39:30.163Z,99192.63
2022-12-08T08:41:56.495Z,99191.38
2022-12-08T08:44:22.893Z,99186.41
2022-12-08T08:46:49.369Z,99190.31
2022-12-08T08:49:15.944Z,99189.75
2022-12-08T08:51:42.376Z,99193.63
2022-12-08T08:54:08.711Z,99204.19
2022-12-08T08:56:35.074Z,99199.91
2022-12-08T08:59:02.977Z,99199.63
2022-12-08T09:01:29.819Z,99196.53
2022-12-08T09:03:56.785Z,99200.53
2022-12-08T09:06:24.160Z,99203.34
2022-12-08T09:08:50.787Z,99203.91
2022-12-08T09:11:18.613Z,99200.00
2022-12-08T09:13:47.729Z,99210.22
2022-12-08T09:16:14.116Z,99204.63
2022-12-08T09:18:40.663Z,99206.69
2022-12-08T09:21:09.989Z,99202.28
2022-12-08T09:23:36.341Z,99212.94
2022-12-08T09:26:04.946Z,99205.94
2022-12-08T09:28:32.212Z,99202.59
2022-12-08T09:30:58.731Z,99202.59
2022-12-08T09:33:25.240Z,99194.38
2022-12-08T09:35:51.615Z,99193.28
2022-12-08T09:38:18.016Z,99181.41
2022-12-08T09:40:52.930Z,99188.34
2022-12-08T09:43:31.394Z,99181.69
2022-12-08T09:45:58.459Z,99177.97
2022-12-08T09:48:34.115Z,99176.59
2022-12-08T09:51:01.054Z,99176.22
2022-12-08T09:53:37.181Z,99166.13
2022-12-08T09:56:06.917Z,99164.47
2022-12-08T09:58:58.374Z,99174.00
2022-12-08T10:01:31.002Z,99161.84
2022-12-08T10:03:58.018Z,99161.13
2022-12-08T10:06:30.964Z,99160.47
2022-12-08T10:09:21.130Z,99158.13
2022-12-08T10:11:58.537Z,99157.41
2022-12-08T10:14:56.103Z,99153.97
2022-12-08T10:17:28.715Z,99150.53
2022-12-08T10:20:02.290Z,99144.69
2022-12-08T10:22:36.712Z,99134.16
2022-12-08T10:25:11.949Z,99137.50
2022-12-08T10:27:38.321Z,99144.66
2022-12-08T10:30:16.058Z,99143.25
2022-12-08T10:32:45.607Z,99142.19
2022-12-08T10:35:13.772Z,99144.78
2022-12-08T10:37:40.893Z,99138.47
2022-12-08T10:40:12.695Z,99136.25
2022-12-08T10:42:46.108Z,99136.69
2022-12-08T10:45:37.368Z,99128.22
2022-12-08T10:48:16.090Z,99130.56
2022-12-08T10:50:59.630Z,99125.28
2022-12-08T10:53:28.580Z,99122.66
2022-12-08T10:55:57.945Z,99125.41
2022-12-08T10:58:33.835Z,99115.31
2022-12-08T11:01:10.871Z,99107.13
2022-12-08T11:03:50.870Z,99106.44
2022-12-08T11:06:20.045Z,99104.88
2022-12-08T11:08:53.876Z,99103.66
2022-12-08T11:11:25.997Z,99102.66
2022-12-08T11:13:55.917Z,99108.47
2022-12-08T11:16:23.246Z,99109.47
2022-12-08T11:18:57.013Z,99101.13
2022-12-08T11:21:34.589Z,99093.69
2022-12-08T11:24:18.671Z,99095.59
2022-12-08T11:27:00.296Z,99095.44
2022-12-08T11:29:31.412Z,99091.25
2022-12-08T11:32:02.851Z,99083.53
2022-12-08T11:34:40.195Z,99085.88
2022-12-08T11:37:15.144Z,99086.19
2022-12-08T11:39:47.093Z,99066.06
2022-12-08T11:42:16.337Z,99081.97
2022-12-08T11:44:50.381Z,99077.56
2022-12-08T11:47:50.107Z,99078.41
2022-12-08T11:50:28.632Z,99076.06
2022-12-08T11:52:58.042Z,99083.38
2022-12-08T11:55:39.090Z,99076.88
2022-12-08T11:58:16.340Z,99075.47
2022-12-08T12:00:42.741Z,99082.75
2022-12-08T12:03:34.310Z,99084.16
2022-12-08T12:06:37.699Z,99081.31
2022-12-08T12:09:14.384Z,99078.91
2022-12-08T12:12:04.932Z,99072.22
2022-12-08T12:14:42.873Z,99074.22
2022-12-08T12:17:38.625Z,99072.25
2022-12-08T12:20:14.366Z,99068.38
2022-12-08T12:22:42.525Z,99068.38
2022-12-08T12:25:18.408Z,99066.56
2022-12-08T12:27:45.663Z,99067.28
2022-12-08T12:30:24.444Z,99060.50
2022-12-08T12:32:56.687Z,99060.03
2022-12-08T12:35:30.606Z,99063.78
2022-12-08T12:38:02.404Z,99057.81
2022-12-08T12:40:40.626Z,99054.44
2022-12-08T12:43:09.846Z,99050.50
2022-12-08T12:45:43.376Z,99051.91
2022-12-08T12:48:09.799Z,99047.88
2022-12-08T12:50:49.283Z,99056.25
2022-12-08T12:53:15.581Z,99049.34
2022-12-08T12:56:00.587Z,99046.19
2022-12-08T12:58:29.983Z,99040.94
2022-12-08T13:01:08.559Z,99052.91
2022-12-08T13:03:35.307Z,99048.31
2022-12-08T13:06:02.141Z,99042.19
2022-12-08T13:08:28.612Z,99038.72
2022-12-08T13:11:03.012Z,99030.13
2022-12-08T13:13:29.848Z,99037.41
2022-12-08T13:16:19.081Z,99029.09
2022-12-08T13:18:51.129Z,99030.78
2022-12-08T13:21:21.081Z,99020.56
2022-12-08T13:24:08.768Z,99019.00
2022-12-08T13:26:45.449Z,99014.41
2022-12-08T13:29:25.862Z,99022.53
2022-12-08T13:31:59.016Z,99020.16
2022-12-08T13:34:34.618Z,99012.00
2022-12-08T13:37:03.993Z,99010.31
2022-12-08T13:39:40.935Z,99004.25
2022-12-08T13:42:46.921Z,99013.13
2022-12-08T13:45:39.763Z,99015.16
2022-12-08T13:49:03.379Z,99018.75
2022-12-08T13:53:34.152Z,99018.13
2022-12-08T13:57:30.878Z,99020.31
2022-12-08T14:00:06.016Z,99030.66
2022-12-08T14:02:43.749Z,99020.16
2022-12-08T14:05:26.578Z,99023.47
2022-12-08T14:08:01.272Z,99031.25
2022-12-08T14:10:32.054Z,99026.16
2022-12-08T14:13:05.404Z,99028.66
2022-12-08T14:15:38.123Z,99032.97
2022-12-08T14:18:05.664Z,99030.63
2022-12-08T14:20:51.975Z,99024.97
2022-12-08T14:23:18.626Z,99027.19
2022-12-08T14:25:48.090Z,99028.00
2022-12-08T14:28:14.549Z,99027.19
2022-12-08T14:30:40.977Z,99033.44
2022-12-08T14:33:14.322Z,99031.66
2022-12-08T14:35:40.820Z,99022.53
2022-12-08T14:38:14.288Z,99028.50
2022-12-08T14:40:43.338Z,99031.69
2022-12-08T14:43:09.618Z,99021.19
2022-12-08T14:45:44.799Z,99032.38
2022-12-08T14:48:27.837Z,99034.88
2022-12-08T14:50:59.720Z,99032.53
2022-12-08T14:53:29.358Z,99035.00
2022-12-08T14:55:55.761Z,99034.19
2022-12-08T14:58:27.846Z,99034.19
2022-12-08T15:00:58.357Z,99029.75
2022-12-08T15:03:30.937Z,99030.88
2022-12-08T15:06:02.931Z,99030.47
2022-12-08T15:08:30.838Z,99030.72
2022-12-08T15:11:26.340Z,99035.03
2022-12-08T15:13:54.320Z,99038.59
2022-12-08T15:16:39.477Z,99042.34
2022-12-08T15:19:33.478Z,99038.06
2022-12-08T15:22:16.623Z,99038.19
2022-12-08T15:24:42.944Z,99038.06
2022-12-08T15:27:18.384Z,99044.13
2022-12-08T15:29:46.260Z,99038.88
2022-12-08T15:32:16.623Z,99042.88
2022-12-08T15:34:43.068Z,99045.25
2022-12-08T15:37:20.514Z,99043.03
2022-12-08T15:39:46.913Z,99043.84
2022-12-08T15:42:13.595Z,99042.19
2022-12-08T15:44:40.593Z,99035.28
2022-12-08T15:47:14.847Z,99045.78
2022-12-08T15:49:41.205Z,99046.47
2022-12-08T15:52:16.627Z,99045.78
2022-12-08T15:54:43.089Z,99042.19
2022-12-08T15:57:22.051Z,99038.06
2022-12-08T15:59:52.545Z,99042.59
2022-12-08T16:02:22.622Z,99041.94
2022-12-08T16:07:38.038Z,99042.06
2022-12-08T16:10:06.888Z,99043.19
2022-12-08T16:15:55.492Z,99041.09
2022-12-08T16:18:28.432Z,99042.06
2022-12-08T16:23:44.291Z,99045.81
2022-12-08T16:26:28.322Z,99045.78
2022-12-08T16:29:01.853Z,99046.91
2022-12-08T16:31:28.468Z,99045.91
2022-12-08T16:33:54.933Z,99041.66
2022-12-08T16:36:21.296Z,99043.19
2022-12-08T16:38:47.692Z,99039.03
2022-12-08T16:41:33.535Z,99042.47
2022-12-08T16:44:05.046Z,99048.69
2022-12-08T16:46:31.944Z,99043.16
2022-12-08T16:48:58.927Z,99045.66
2022-12-08T16:51:27.255Z,99044.16
2022-12-08T16:53:55.144Z,99048.28
2022-12-08T16:56:26.383Z,99039.72
2022-12-08T16:58:58.440Z,99035.00
2022-12-08T17:01:24.848Z,99048.00
2022-12-08T17:04:14.461Z,99047.75
2022-12-08T17:06:37.638Z,99048.97
2022-12-08T17:09:05.055Z,99040.53
2022-12-08T17:11:37.508Z,99037.09
2022-12-08T17:14:09.087Z,99047.72
2022-12-08T17:16:35.672Z,99051.59
2022-12-08T17:19:02.124Z,99040.97
2022-12-08T17:21:28.490Z,99050.91
2022-12-08T17:23:54.894Z,99052.84
2022-12-08T17:26:21.244Z,99042.50
2022-12-08T17:29:03.009Z,99054.34
2022-12-08T17:31:32.116Z,99045.78
2022-12-08T17:34:00.520Z,99045.78
2022-12-08T17:36:26.947Z,99049.38
2022-12-08T17:38:53.801Z,99052.72
2022-12-08T17:41:20.190Z,99052.00
2022-12-08T17:43:46.530Z,99042.19
2022-12-08T17:46:17.694Z,99046.50
2022-12-08T17:48:44.448Z,99045.78
2022-12-08T17:51:10.832Z,99046.06
2022-12-08T17:53:39.919Z,99047.47
2022-12-08T17:56:13.525Z,99054.09
2022-12-08T17:58:39.868Z,99046.75
2022-12-08T18:01:10.887Z,99049.38
2022-12-08T18:03:38.453Z,99050.91
2022-12-08T18:06:09.968Z,99044.81
2022-12-08T18:08:37.209Z,99045.25
2022-12-08T18:11:04.647Z,99035.00
2022-12-08T18:13:31.709Z,99037.66
2022-12-08T18:15:58.281Z,99050.22
2022-12-08T18:18:24.733Z,99045.41
2022-12-08T18:20:51.043Z,99037.34
2022-12-08T18:23:18.061Z,99045.81
2022-12-08T18:25:44.830Z,99049.09
2022-12-08T18:28:11.473Z,99038.47
2022-12-08T18:30:38.983Z,99042.22
2022-12-08T18:33:07.333Z,99045.78
2022-12-08T18:35:34.376Z,99043.16
2022-12-08T18:38:00.876Z,99039.72
2022-12-08T18:40:28.092Z,99048.69
2022-12-08T18:42:54.653Z,99041.78
2022-12-08T18:45:22.801Z,99045.50
2022-12-08T18:47:51.069Z,99041.22
2022-12-08T18:50:17.949Z,99051.31
2022-12-08T18:52:45.908Z,99038.06
2022-12-08T18:55:12.758Z,99045.94
2022-12-08T18:57:41.638Z,99041.38
2022-12-08T19:00:10.353Z,99046.34
2022-12-08T19:02:38.377Z,99041.22
2022-12-08T19:05:06.144Z,99042.50
2022-12-08T19:07:32.513Z,99038.88
2022-12-08T19:09:59.326Z,99051.88
2022-12-08T19:12:26.252Z,99035.28
2022-12-08T19:14:52.952Z,99032.28
2022-12-08T19:17:19.478Z,99030.63
2022-12-08T19:19:45.868Z,99026.84
2022-12-08T19:22:12.376Z,99032.53
2022-12-08T19:24:38.795Z,99030.63
2022-12-08T19:27:06.201Z,99032.00
2022-12-08T19:29:32.662Z,99030.19
2022-12-08T19:32:00.227Z,99030.03
2022-12-08T19:34:26.823Z,99028.09
2022-12-08T19:36:53.201Z,99031.97
2022-12-08T19:39:41.193Z,99032.00
2022-12-08T19:42:34.448Z,99037.25
2022-12-08T19:45:05.355Z,99039.03
2022-12-08T19:47:31.798Z,99037.09
2022-12-08T19:50:18.270Z,99037.34
2022-12-08T19:52:44.825Z,99037.53
2022-12-08T19:55:12.076Z,99036.25
2022-12-08T19:57:38.695Z,99047.75
2022-12-08T20:00:06.697Z,99044.97
2022-12-08T20:02:33.264Z,99045.13
2022-12-08T20:04:59.819Z,99041.66
2022-12-08T20:07:26.238Z,99043.03
2022-12-08T20:09:52.579Z,99053.25
2022-12-08T20:12:18.941Z,99044.97
2022-12-08T20:14:46.234Z,99055.47
2022-12-08T20:17:12.894Z,99055.72
2022-12-08T20:19:39.389Z,99049.94
2022-12-08T20:22:05.777Z,99058.22
2022-12-08T20:24:32.228Z,99065.13
2022-12-08T20:26:58.632Z,99057.00
2022-12-08T20:29:24.968Z,99064.84
2022-12-08T20:31:51.435Z,99069.84
2022-12-08T20:34:19.288Z,99067.06
2022-12-08T20:36:46.503Z,99073.41
2022-12-08T20:39:14.945Z,99079.47
2022-12-08T20:41:42.750Z,99079.19
2022-12-08T20:44:09.808Z,99085.28
2022-12-08T20:46:36.261Z,99080.03
2022-12-08T20:49:04.302Z,99079.19
2022-12-08T20:51:32.522Z,99083.91
2022-12-08T20:53:59.322Z,99080.84
2022-12-08T20:56:26.529Z,99079.19
2022-12-08T20:58:54.255Z,99078.50
2022-12-08T21:01:22.674Z,99081.66
2022-12-08T21:03:49.495Z,99087.19
2022-12-08T21:06:16.360Z,99096.13
2022-12-08T21:08:43.101Z,99091.72
2022-12-08T21:11:10.109Z,99083.56
2022-12-08T21:13:37.903Z,99089.69
2022-12-08T21:16:05.069Z,99094.75
2022-12-08T21:18:37.455Z,99097.94
2022-12-08T21:21:09.149Z,99088.53
2022-12-08T21:23:35.947Z,99088.81
2022-12-08T21:26:03.186Z,99093.25
2022-12-08T21:28:29.794Z,99099.03
2022-12-08T21:30:56.423Z,99098.59
2022-12-08T21:33:22.945Z,99100.72
2022-12-08T21:35:49.609Z,99105.63
2022-12-08T21:38:16.117Z,99110.16
2022-12-08T21:40:42.887Z,99111.41
2022-12-08T21:43:09.421Z,99114.56
2022-12-08T21:45:35.860Z,99112.31
2022-12-08T21:48:10.997Z,99111.22
2022-12-08T21:50:38.004Z,99118.53
2022-12-08T21:53:04.526Z,99105.88
2022-12-08T21:55:31.035Z,99102.81
2022-12-08T21:58:00.766Z,99110.50
2022-12-08T22:00:27.554Z,99111.66
2022-12-08T22:02:54.345Z,99111.94
2022-12-08T22:05:20.949Z,99101.09
2022-12-08T22:07:47.578Z,99101.31
2022-12-08T22:10:14.094Z,99114.94
2022-12-08T22:12:40.645Z,99109.56
2022-12-08T22:15:09.073Z,99114.78
2022-12-08T22:17:38.346Z,99114.72
2022-12-08T22:20:11.726Z,99111.97
2022-12-08T22:22:39.236Z,99105.16
2022-12-08T22:25:07.395Z,99102.66
2022-12-08T22:27:34.231Z,99112.28
2022-12-08T22:30:00.841Z,99107.31
2022-12-08T22:32:27.432Z,99110.22
2022-12-08T22:34:54.111Z,99112.53
2022-12-08T22:37:21.160Z,99111.38
2022-12-08T22:39:47.952Z,99106.44
2022-12-08T22:42:15.213Z,99110.88
2022-12-08T22:44:41.749Z,99110.06
2022-12-08T22:47:08.500Z,99113.41
2022-12-08T22:49:36.560Z,99106.28
2022-12-08T22:52:03.358Z,99110.78
2022-12-08T22:54:29.923Z,99103.97
2022-12-08T22:56:56.355Z,99100.66
2022-12-08T22:59:22.720Z,99098.78
2022-12-08T23:01:49.414Z,99106.41
2022-12-08T23:04:18.408Z,99109.56
2022-12-08T23:06:45.227Z,99110.06
2022-12-08T23:09:11.790Z,99123.31
2022-12-08T23:11:38.456Z,99109.94
2022-12-08T23:14:04.926Z,99109.88
2022-12-08T23:16:31.513Z,99115.56
2022-12-08T23:18:59.149Z,99106.44
2022-12-08T23:21:25.586Z,99118.00
2022-12-08T23:23:51.933Z,99103.44
2022-12-08T23:26:22.399Z,99117.06
2022-12-08T23:28:49.181Z,99108.50
2022-12-08T23:31:16.067Z,99101.63
2022-12-08T23:33:43.212Z,99109.91
2022-12-08T23:36:10.996Z,99109.41
2022-12-08T23:38:37.813Z,99112.31
2022-12-08T23:41:06.980Z,99109.13
2022-12-08T23:43:34.539Z,99108.44
2022-12-08T23:46:01.341Z,99102.88
2022-12-08T23:48:28.793Z,99108.63
2022-12-08T23:50:56.938Z,99113.41
2022-12-08T23:53:23.499Z,99110.44
2022-12-08T23:55:49.849Z,99105.75
2022-12-08T23:58:16.215Z,99108.63
